createdAt,value
2022-09-15T00:04:50.470Z,20.23
2022-09-15T00:09:53.870Z,20.23
2022-09-15T00:14:57.400Z,20.23
2022-09-15T00:20:01.238Z,20.22
2022-09-15T00:25:05.256Z,20.22
2022-09-15T00:30:10.164Z,20.22
2022-09-15T00:35:13.652Z,20.21
2022-09-15T00:40:17.494Z,20.21
2022-09-15T00:45:21.054Z,20.21
2022-09-15T00:50:24.771Z,20.21
2022-09-15T00:55:30.130Z,20.20
2022-09-15T01:00:34.070Z,20.21
2022-09-15T01:05:40.580Z,20.20
2022-09-15T01:10:46.290Z,20.22
2022-09-15T01:15:55.700Z,20.19
2022-09-15T01:21:09.420Z,20.19
2022-09-15T01:26:22.041Z,20.19
2022-09-15T01:31:29.585Z,20.21
2022-09-15T01:36:38.494Z,20.21
2022-09-15T01:41:44.741Z,20.19
2022-09-15T01:46:50.740Z,20.19
2022-09-15T01:51:55.000Z,20.18
2022-09-15T01:56:58.503Z,20.18
2022-09-15T02:02:06.074Z,20.18
2022-09-15T02:07:14.142Z,20.18
2022-09-15T02:12:20.012Z,20.18
2022-09-15T02:17:24.350Z,20.18
2022-09-15T02:22:29.622Z,20.16
2022-09-15T02:27:37.132Z,20.16
2022-09-15T02:32:43.045Z,20.16
2022-09-15T02:37:47.097Z,20.17
2022-09-15T02:42:55.411Z,20.15
2022-09-15T02:47:59.339Z,20.15
2022-09-15T02:53:03.224Z,20.16
2022-09-15T02:58:07.170Z,20.14
2022-09-15T03:03:10.924Z,20.16
2022-09-15T03:08:14.550Z,20.14
2022-09-15T03:13:18.251Z,20.14
2022-09-15T03:18:21.878Z,20.15
2022-09-15T03:23:25.389Z,20.14
2022-09-15T03:28:29.215Z,20.14
2022-09-15T03:33:32.962Z,20.14
2022-09-15T03:38:36.440Z,20.13
2022-09-15T03:43:39.950Z,20.12
2022-09-15T03:48:43.788Z,20.12
2022-09-15T03:53:47.248Z,20.13
2022-09-15T03:58:50.925Z,20.12
2022-09-15T04:03:54.636Z,20.11
2022-09-15T04:08:59.850Z,20.13
2022-09-15T04:14:03.513Z,20.12
2022-09-15T04:19:07.231Z,20.11
2022-09-15T04:24:10.748Z,20.11
2022-09-15T04:29:16.108Z,20.10
2022-09-15T04:34:19.610Z,20.11
2022-09-15T04:39:23.210Z,20.10
2022-09-15T04:44:26.731Z,20.10
2022-09-15T04:49:31.380Z,20.08
2022-09-15T04:54:35.384Z,20.09
2022-09-15T04:59:39.246Z,20.10
2022-09-15T05:04:43.588Z,20.10
2022-09-15T05:09:47.090Z,20.10
2022-09-15T05:14:50.608Z,20.09
2022-09-15T05:19:54.228Z,20.08
2022-09-15T05:24:57.738Z,20.08
2022-09-15T05:30:31.803Z,20.09
2022-09-15T05:35:25.050Z,20.10
2022-09-15T05:40:28.928Z,20.09
2022-09-15T05:45:32.488Z,20.09
2022-09-15T05:50:36.300Z,20.09
2022-09-15T05:55:40.641Z,20.08
2022-09-15T06:00:44.369Z,20.08
2022-09-15T06:05:48.180Z,20.09
2022-09-15T06:10:51.806Z,20.08
2022-09-15T06:15:55.854Z,20.08
2022-09-15T06:21:02.920Z,20.09
2022-09-15T06:26:10.932Z,20.09
2022-09-15T06:31:15.158Z,20.08
2022-09-15T06:36:19.310Z,20.08
2022-09-15T06:41:23.031Z,20.08
2022-09-15T06:46:28.125Z,20.08
2022-09-15T06:51:35.042Z,20.10
2022-09-15T06:56:38.673Z,20.08
2022-09-15T07:01:43.201Z,20.07
2022-09-15T07:06:46.744Z,20.07
2022-09-15T07:11:50.368Z,20.08
2022-09-15T07:16:53.781Z,20.06
2022-09-15T07:21:57.408Z,20.08
2022-09-15T07:27:01.274Z,20.07
2022-09-15T07:32:06.179Z,20.06
2022-09-15T07:37:09.780Z,20.07
2022-09-15T07:42:15.400Z,20.07
2022-09-15T07:47:19.064Z,20.05
2022-09-15T07:52:22.581Z,20.05
2022-09-15T07:57:27.170Z,20.04
2022-09-15T08:02:30.632Z,20.05
2022-09-15T08:07:34.252Z,20.07
2022-09-15T08:12:37.760Z,20.05
2022-09-15T08:17:41.496Z,20.05
2022-09-15T08:22:46.030Z,20.05
2022-09-15T08:27:50.064Z,20.08
2022-09-15T08:32:56.530Z,20.06
2022-09-15T08:37:59.894Z,20.07
2022-09-15T08:43:05.569Z,20.07
2022-09-15T08:48:15.394Z,20.07
2022-09-15T08:53:20.290Z,20.07
2022-09-15T08:58:24.975Z,20.07
2022-09-15T09:03:42.413Z,20.06
2022-09-15T09:09:01.402Z,20.07
2022-09-15T09:14:09.400Z,20.09
2022-09-15T09:19:20.188Z,20.09
2022-09-15T09:24:28.327Z,20.09
2022-09-15T09:29:34.231Z,20.08
2022-09-15T09:34:42.210Z,20.09
2022-09-15T09:39:46.887Z,20.09
2022-09-15T09:44:50.600Z,20.10
2022-09-15T09:49:53.980Z,20.09
2022-09-15T09:55:01.034Z,20.09
2022-09-15T10:00:05.303Z,20.09
2022-09-15T10:05:18.565Z,20.09
2022-09-15T10:10:23.464Z,20.08
2022-09-15T10:15:28.492Z,20.09
2022-09-15T10:20:35.352Z,20.09
2022-09-15T10:25:57.940Z,20.07
2022-09-15T10:31:04.405Z,20.08
2022-09-15T10:36:12.842Z,20.08
2022-09-15T10:41:22.485Z,20.08
2022-09-15T10:46:28.100Z,20.07
2022-09-15T10:51:46.130Z,20.07
2022-09-15T10:56:50.091Z,20.07
2022-09-15T11:02:04.082Z,20.05
2022-09-15T11:07:11.840Z,20.07
2022-09-15T11:12:28.414Z,20.06
2022-09-15T11:17:40.030Z,20.05
2022-09-15T11:22:49.589Z,20.04
2022-09-15T11:27:55.250Z,20.03
2022-09-15T11:33:00.690Z,20.03
2022-09-15T11:38:13.116Z,20.03
2022-09-15T11:43:18.999Z,20.04
2022-09-15T11:48:25.500Z,20.01
2022-09-15T11:53:33.110Z,20.03
2022-09-15T11:58:43.268Z,20.06
2022-09-15T12:03:51.378Z,20.03
2022-09-15T12:08:57.590Z,20.03
2022-09-15T12:14:03.194Z,20.03
2022-09-15T12:19:09.310Z,20.03
2022-09-15T12:24:17.146Z,20.02
2022-09-15T12:29:42.212Z,20.03
2022-09-15T12:34:56.641Z,20.01
2022-09-15T12:40:00.270Z,20.02
2022-09-15T12:45:05.711Z,20.01
2022-09-15T12:50:22.645Z,20.01
2022-09-15T12:55:28.238Z,20.01
2022-09-15T13:00:34.409Z,20.00
2022-09-15T13:06:07.170Z,20.00
2022-09-15T13:11:12.570Z,20.01
2022-09-15T13:16:19.378Z,20.01
2022-09-15T13:21:23.910Z,20.00
2022-09-15T13:26:27.889Z,20.00
2022-09-15T13:31:37.340Z,20.00
2022-09-15T13:42:30.262Z,20.01
2022-09-15T13:47:50.104Z,20.02
2022-09-15T13:53:00.920Z,20.00
2022-09-15T14:03:36.530Z,20.00
2022-09-15T14:08:41.433Z,19.99
2022-09-15T14:13:46.308Z,19.99
2022-09-15T14:18:50.250Z,19.97
2022-09-15T14:23:55.052Z,19.99
2022-09-15T14:28:59.850Z,19.98
2022-09-15T14:34:05.720Z,19.97
2022-09-15T14:39:19.812Z,19.97
2022-09-15T14:50:06.231Z,19.98
2022-09-15T14:55:14.201Z,19.97
2022-09-15T15:00:22.712Z,19.98
2022-09-15T15:05:27.848Z,19.98
2022-09-15T15:10:35.599Z,19.98
2022-09-15T15:15:39.638Z,19.95
2022-09-15T15:20:48.664Z,19.96
2022-09-15T15:25:52.382Z,19.95
2022-09-15T15:31:06.004Z,19.94
2022-09-15T15:36:11.551Z,19.95
2022-09-15T15:41:19.920Z,19.94
2022-09-15T15:46:37.439Z,19.95
2022-09-15T15:51:41.132Z,19.95
2022-09-15T15:56:44.970Z,19.94
2022-09-15T16:01:51.791Z,19.94
2022-09-15T16:06:55.480Z,19.93
2022-09-15T16:11:59.154Z,19.92
2022-09-15T16:17:03.030Z,19.91
2022-09-15T16:22:06.550Z,19.91
2022-09-15T16:27:14.220Z,19.91
2022-09-15T16:32:18.664Z,19.90
2022-09-15T16:37:22.310Z,19.91
2022-09-15T16:42:25.921Z,19.90
2022-09-15T16:47:29.439Z,19.90
2022-09-15T16:52:33.268Z,19.89
2022-09-15T16:57:36.779Z,19.89
2022-09-15T17:02:40.290Z,19.89
2022-09-15T17:07:43.708Z,19.88
2022-09-15T17:12:47.432Z,19.88
2022-09-15T17:17:51.468Z,19.89
2022-09-15T17:22:55.798Z,19.87
2022-09-15T17:27:59.710Z,19.87
2022-09-15T17:33:05.021Z,19.88
2022-09-15T17:38:08.700Z,19.86
2022-09-15T17:43:15.412Z,19.87
2022-09-15T17:48:19.503Z,19.87
2022-09-15T17:53:26.233Z,19.86
2022-09-15T17:58:31.654Z,19.87
2022-09-15T18:03:36.110Z,19.86
2022-09-15T18:08:40.028Z,19.85
2022-09-15T18:13:43.709Z,19.84
2022-09-15T18:18:47.560Z,19.85
2022-09-15T18:23:53.330Z,19.85
2022-09-15T18:28:56.722Z,19.85
2022-09-15T18:34:00.975Z,19.83
2022-09-15T18:39:05.300Z,19.83
2022-09-15T18:44:09.130Z,19.84
2022-09-15T18:49:12.648Z,19.84
2022-09-15T18:54:16.460Z,19.83
2022-09-15T18:59:19.990Z,19.84
2022-09-15T19:04:26.365Z,19.82
2022-09-15T19:09:33.575Z,19.83
2022-09-15T19:14:37.124Z,19.83
2022-09-15T19:19:41.012Z,19.82
2022-09-15T19:24:44.734Z,19.82
2022-09-15T19:29:48.600Z,19.81
2022-09-15T19:34:52.930Z,19.83
2022-09-15T19:39:56.444Z,19.82
2022-09-15T19:45:00.835Z,19.81
2022-09-15T19:50:05.284Z,19.81
2022-09-15T19:55:09.983Z,19.81
2022-09-15T20:00:15.182Z,19.82
2022-09-15T20:05:18.998Z,19.80
2022-09-15T20:10:22.527Z,19.81
2022-09-15T20:15:26.121Z,19.80
2022-09-15T20:20:30.743Z,19.81
2022-09-15T20:25:34.484Z,19.79
2022-09-15T20:30:38.062Z,19.80
2022-09-15T20:35:41.615Z,19.79
2022-09-15T20:40:45.304Z,19.80
2022-09-15T20:45:55.743Z,19.80
2022-09-15T20:51:02.860Z,19.79
2022-09-15T20:56:07.320Z,19.79
2022-09-15T21:01:12.886Z,19.78
2022-09-15T21:06:17.894Z,19.78
2022-09-15T21:11:22.064Z,19.79
2022-09-15T21:16:27.011Z,19.76
2022-09-15T21:21:32.301Z,19.77
2022-09-15T21:26:56.601Z,19.78
2022-09-15T21:32:00.454Z,19.80
2022-09-15T21:37:04.245Z,19.77
2022-09-15T21:42:09.790Z,19.77
2022-09-15T21:47:14.341Z,19.76
2022-09-15T21:52:17.970Z,19.77
2022-09-15T21:57:21.791Z,19.75
2022-09-15T22:02:25.585Z,19.75
2022-09-15T22:07:29.160Z,19.74
2022-09-15T22:12:32.752Z,19.75
2022-09-15T22:17:36.462Z,19.75
2022-09-15T22:22:40.280Z,19.75
2022-09-15T22:27:44.000Z,19.73
2022-09-15T22:32:47.470Z,19.74
2022-09-15T22:37:50.931Z,19.73
2022-09-15T22:42:54.758Z,19.73
2022-09-15T22:47:58.570Z,19.73
2022-09-15T22:53:02.509Z,19.73
2022-09-15T22:58:05.984Z,19.74
2022-09-15T23:03:10.424Z,19.71
2022-09-15T23:08:14.283Z,19.71
2022-09-15T23:13:18.512Z,19.71
2022-09-15T23:18:22.021Z,19.71
2022-09-15T23:23:25.744Z,19.70
2022-09-15T23:28:29.794Z,19.70
2022-09-15T23:33:33.381Z,19.69
2022-09-15T23:38:37.578Z,19.69
2022-09-15T23:43:41.860Z,19.69
2022-09-15T23:48:45.482Z,19.69
2022-09-15T23:53:49.159Z,19.69
2022-09-15T23:58:52.816Z,19.69
